Maersk Niamey — VREX7 — position and weather

sailwx.info

Track history (hours):
 
Tides and Currents Weather Stations Pressure Air Temp Water Temp Dewpoint Dewpoint Depression Visibility Wind Speed Wind Dir Waves Ship Positions

Maersk Niamey

Last reported at 2018-Jun-13 16:27 UTC. Time now 2018-Jun-17 23:49 UTC.
Position N 09°11' W 079°53'.

Length 210 m; draft 10.3 m.

Type: Cargo ship. MMSI: 477197100.

Date/timePositionNaut miles runAvg speedWind from/ knotsBaromVisibWave heightAir tempDewpointWater temp
2018-Jun-13 16:27N 09°11' W 079°53'4 9.0
2018-Jun-13 16:00N 09°14' W 079°55'2 4.1
2018-Jun-13 15:30N 09°16' W 079°55'0 0.4
2018-Jun-13 15:00N 09°16' W 079°55'0 0.3
2018-Jun-13 14:30N 09°17' W 079°55'0 0.4
2018-Jun-13 13:58N 09°17' W 079°55'1 1.1
2018-Jun-13 13:30N 09°17' W 079°55'1 2.5
2018-Jun-13 13:00N 09°19' W 079°55'3 6.8
2018-Jun-13 12:30N 09°22' W 079°55'4 7.2
2018-Jun-13 12:00N 09°26' W 079°55'0 0.5
2018-Jun-13 11:30N 09°25' W 079°55'1 1.0
2018-Jun-13 11:00N 09°26' W 079°55'0 0.0
2018-Jun-13 10:30N 09°26' W 079°56'0 0.0
2018-Jun-13 10:00N 09°26' W 079°55'0 0.1
2018-Jun-13 09:30N 09°26' W 079°55'0 0.0
2018-Jun-13 08:57N 09°26' W 079°55'0 0.0
2018-Jun-13 08:30N 09°26' W 079°55'0 0.1
2018-Jun-13 08:00N 09°26' W 079°55'0 0.0
2018-Jun-13 07:30N 09°26' W 079°55'0 0.1
2018-Jun-13 07:00N 09°26' W 079°55'0 0.1
2018-Jun-13 06:30N 09°26' W 079°55'0 0.0
2018-Jun-13 06:00N 09°26' W 079°55'0 0.0
2018-Jun-13 05:30N 09°26' W 079°55'0 0.1
2018-Jun-13 05:00N 09°26' W 079°55'0 0.0
2018-Jun-13 04:30N 09°26' W 079°55'0 0.0
2018-Jun-13 04:00N 09°26' W 079°55'0 0.0
2018-Jun-13 03:30N 09°26' W 079°55'0 0.0
2018-Jun-13 03:00N 09°26' W 079°55'0 0.0
2018-Jun-13 02:30N 09°26' W 079°55'0 0.1
2018-Jun-13 02:00N 09°26' W 079°55'0 0.1
2018-Jun-13 01:30N 09°26' W 079°55'0 0.0
2018-Jun-13 01:00N 09°26' W 079°55'0 0.0
2018-Jun-13 00:30N 09°26' W 079°55'0 0.0
2018-Jun-12 23:57N 09°26' W 079°55'0 0.0
2018-Jun-12 23:30N 09°26' W 079°55'0 0.0
2018-Jun-12 23:00N 09°26' W 079°55'0 0.0
2018-Jun-12 22:30N 09°26' W 079°55'0 0.0
2018-Jun-12 21:57N 09°26' W 079°55'0 0.0
2018-Jun-12 21:30N 09°26' W 079°55'0 0.0
2018-Jun-12 20:57N 09°26' W 079°55'0 0.0
2018-Jun-12 20:30N 09°26' W 079°55'2 4.7
2018-Jun-12 20:00N 09°24' W 079°54'2 4.7
2018-Jun-12 19:30N 09°22' W 079°53'0 0.0
2018-Jun-12 18:59N 09°22' W 079°53'0 0.0
2018-Jun-12 18:29N 09°22' W 079°53'0 0.0
2018-Jun-12 17:59N 09°22' W 079°53'0 0.0
2018-Jun-12 17:29N 09°22' W 079°53'0 0.0
2018-Jun-12 16:59N 09°22' W 079°53'0 0.0
2018-Jun-12 16:29N 09°22' W 079°53'0 0.0
2018-Jun-12 15:59N 09°22' W 079°53'0 0.0
2018-Jun-12 15:29N 09°22' W 079°53'0 0.0
2018-Jun-12 14:59N 09°22' W 079°53'0 0.0
2018-Jun-12 14:29N 09°22' W 079°53'0 0.0
2018-Jun-12 13:59N 09°22' W 079°53'0 0.0
2018-Jun-12 13:29N 09°22' W 079°53'0 0.0
2018-Jun-12 12:59N 09°22' W 079°53'0 0.0
2018-Jun-12 12:29N 09°22' W 079°53'0 0.0
2018-Jun-12 11:59N 09°22' W 079°53'0 0.0
2018-Jun-12 11:29N 09°22' W 079°53'0 0.0
2018-Jun-12 10:59N 09°22' W 079°53'0 0.1
2018-Jun-12 10:30N 09°22' W 079°53'2 4.8
2018-Jun-12 10:00N 09°24' W 079°54'4 8.2
2018-Jun-12 09:30N 09°28' W 079°53'611.7
2018-Jun-12 09:01N 09°34' W 079°53'24815.2
2018-Jun-11 16:45N 10°18' W 075°45'415.1
2018-Jun-11 16:28N 10°18' W 075°41'612.8
2018-Jun-11 16:00N 10°19' W 075°35'4 8.0
2018-Jun-11 15:30N 10°22' W 075°32'2 3.9
2018-Jun-11 15:00N 10°24' W 075°32'0 0.2
2018-Jun-11 14:29N 10°24' W 075°32'0 0.0
2018-Jun-11 13:56N 10°24' W 075°32'0 0.0
2018-Jun-11 13:26N 10°24' W 075°32'0 0.0
2018-Jun-11 12:56N 10°24' W 075°32'1 0.1
2018-Jun-11 03:58N 10°24' W 075°32'3 7.2
2018-Jun-11 03:30N 10°20' W 075°32'5 9.1
2018-Jun-11 03:00N 10°19' W 075°36'5 9.8
2018-Jun-11 02:30N 10°19' W 075°41'  
Track history (hours):
 
Tides and Currents Weather Stations Pressure Air Temp Water Temp Dewpoint Dewpoint Depression Visibility Wind Speed Wind Dir Waves Ship Positions

Maersk Niamey

Last reported at 2018-Jun-13 16:27 UTC. Time now 2018-Jun-17 23:49 UTC.
Position N 09°11' W 079°53'.

Length 210 m; draft 10.3 m.

Type: Cargo ship. MMSI: 477197100.

Date/timePositionNaut miles runAvg speedWind from/ knotsBaromVisibWave heightAir tempDewpointWater temp
2018-Jun-13 16:27N 09°11' W 079°53'4 9.0
2018-Jun-13 16:00N 09°14' W 079°55'2 4.1
2018-Jun-13 15:30N 09°16' W 079°55'0 0.4
2018-Jun-13 15:00N 09°16' W 079°55'0 0.3
2018-Jun-13 14:30N 09°17' W 079°55'0 0.4
2018-Jun-13 13:58N 09°17' W 079°55'1 1.1
2018-Jun-13 13:30N 09°17' W 079°55'1 2.5
2018-Jun-13 13:00N 09°19' W 079°55'3 6.8
2018-Jun-13 12:30N 09°22' W 079°55'4 7.2
2018-Jun-13 12:00N 09°26' W 079°55'0 0.5
2018-Jun-13 11:30N 09°25' W 079°55'1 1.0
2018-Jun-13 11:00N 09°26' W 079°55'0 0.0
2018-Jun-13 10:30N 09°26' W 079°56'0 0.0
2018-Jun-13 10:00N 09°26' W 079°55'0 0.1
2018-Jun-13 09:30N 09°26' W 079°55'0 0.0
2018-Jun-13 08:57N 09°26' W 079°55'0 0.0
2018-Jun-13 08:30N 09°26' W 079°55'0 0.1
2018-Jun-13 08:00N 09°26' W 079°55'0 0.0
2018-Jun-13 07:30N 09°26' W 079°55'0 0.1
2018-Jun-13 07:00N 09°26' W 079°55'0 0.1
2018-Jun-13 06:30N 09°26' W 079°55'0 0.0
2018-Jun-13 06:00N 09°26' W 079°55'0 0.0
2018-Jun-13 05:30N 09°26' W 079°55'0 0.1
2018-Jun-13 05:00N 09°26' W 079°55'0 0.0
2018-Jun-13 04:30N 09°26' W 079°55'0 0.0
2018-Jun-13 04:00N 09°26' W 079°55'0 0.0
2018-Jun-13 03:30N 09°26' W 079°55'0 0.0
2018-Jun-13 03:00N 09°26' W 079°55'0 0.0
2018-Jun-13 02:30N 09°26' W 079°55'0 0.1
2018-Jun-13 02:00N 09°26' W 079°55'0 0.1
2018-Jun-13 01:30N 09°26' W 079°55'0 0.0
2018-Jun-13 01:00N 09°26' W 079°55'0 0.0
2018-Jun-13 00:30N 09°26' W 079°55'0 0.0
2018-Jun-12 23:57N 09°26' W 079°55'0 0.0
2018-Jun-12 23:30N 09°26' W 079°55'0 0.0
2018-Jun-12 23:00N 09°26' W 079°55'0 0.0
2018-Jun-12 22:30N 09°26' W 079°55'0 0.0
2018-Jun-12 21:57N 09°26' W 079°55'0 0.0
2018-Jun-12 21:30N 09°26' W 079°55'0 0.0
2018-Jun-12 20:57N 09°26' W 079°55'0 0.0
2018-Jun-12 20:30N 09°26' W 079°55'2 4.7
2018-Jun-12 20:00N 09°24' W 079°54'2 4.7
2018-Jun-12 19:30N 09°22' W 079°53'0 0.0
2018-Jun-12 18:59N 09°22' W 079°53'0 0.0
2018-Jun-12 18:29N 09°22' W 079°53'0 0.0
2018-Jun-12 17:59N 09°22' W 079°53'0 0.0
2018-Jun-12 17:29N 09°22' W 079°53'0 0.0
2018-Jun-12 16:59N 09°22' W 079°53'0 0.0
2018-Jun-12 16:29N 09°22' W 079°53'0 0.0
2018-Jun-12 15:59N 09°22' W 079°53'0 0.0
2018-Jun-12 15:29N 09°22' W 079°53'0 0.0
2018-Jun-12 14:59N 09°22' W 079°53'0 0.0
2018-Jun-12 14:29N 09°22' W 079°53'0 0.0
2018-Jun-12 13:59N 09°22' W 079°53'0 0.0
2018-Jun-12 13:29N 09°22' W 079°53'0 0.0
2018-Jun-12 12:59N 09°22' W 079°53'0 0.0
2018-Jun-12 12:29N 09°22' W 079°53'0 0.0
2018-Jun-12 11:59N 09°22' W 079°53'0 0.0
2018-Jun-12 11:29N 09°22' W 079°53'0 0.0
2018-Jun-12 10:59N 09°22' W 079°53'0 0.1
2018-Jun-12 10:30N 09°22' W 079°53'2 4.8
2018-Jun-12 10:00N 09°24' W 079°54'4 8.2
2018-Jun-12 09:30N 09°28' W 079°53'611.7
2018-Jun-12 09:01N 09°34' W 079°53'24815.2
2018-Jun-11 16:45N 10°18' W 075°45'415.1
2018-Jun-11 16:28N 10°18' W 075°41'612.8
2018-Jun-11 16:00N 10°19' W 075°35'4 8.0
2018-Jun-11 15:30N 10°22' W 075°32'2 3.9
2018-Jun-11 15:00N 10°24' W 075°32'0 0.2
2018-Jun-11 14:29N 10°24' W 075°32'0 0.0
2018-Jun-11 13:56N 10°24' W 075°32'0 0.0
2018-Jun-11 13:26N 10°24' W 075°32'0 0.0
2018-Jun-11 12:56N 10°24' W 075°32'1 0.1
2018-Jun-11 03:58N 10°24' W 075°32'3 7.2
2018-Jun-11 03:30N 10°20' W 075°32'5 9.1
2018-Jun-11 03:00N 10°19' W 075°36'5 9.8
2018-Jun-11 02:30N 10°19' W 075°41'  

Dump ship's entire track history